Time;durP1;ratioP1;P1;durP2;ratioP2;P2;SDS_P1;SDS_P2;PMS_P1;PMS_P2;Temp;Humidity;BMP_temperature;BMP_pressure;BME280_temperature;BME280_humidity;BME280_pressure;Samples;Min_cycle;Max_cycle;Signal;HPM_P1;HPM_P2
2023/01/18 00:00:36;;;;;;;0.10;0.10;;;;;;;5.34;100.00;97410.44;7388892;19;20414;-79
2023/01/18 00:03:03;;;;;;;0.38;0.10;;;;;;;6.11;100.00;97395.91;7390925;19;20023;-79
2023/01/18 00:05:29;;;;;;;2.08;0.40;;;;;;;5.98;100.00;97384.59;7390342;19;20444;-79
2023/01/18 00:07:56;;;;;;;0.22;0.22;;;;;;;6.60;100.00;97377.69;7391405;19;20022;-79
2023/01/18 00:10:22;;;;;;;1.55;0.55;;;;;;;7.80;100.00;97362.81;7390306;19;20021;-79
2023/01/18 00:12:49;;;;;;;0.17;0.17;;;;;;;11.61;100.00;97360.66;7389523;19;20370;-79
2023/01/18 00:15:15;;;;;;;0.40;0.30;;;;;;;11.23;100.00;97373.47;7387441;19;20015;-80
2023/01/18 00:17:50;;;;;;;0.10;0.10;;;;;;;12.92;85.56;97368.16;7387771;19;20042;-78
2023/01/18 00:20:20;;;;;;;0.63;0.50;;;;;;;11.37;94.70;97361.72;7386711;19;20101;-79
2023/01/18 00:22:47;;;;;;;0.13;0.13;;;;;;;14.53;82.33;97354.63;7387984;19;20038;-80
2023/01/18 00:25:13;;;;;;;1.55;1.02;;;;;;;14.90;83.84;97362.94;7388635;19;20015;-79
2023/01/18 00:27:45;;;;;;;0.20;0.20;;;;;;;16.81;69.58;97344.97;7389810;19;20477;-79
2023/01/18 00:30:11;;;;;;;0.10;0.10;;;;;;;14.97;74.97;97356.56;7390108;19;20784;-80
2023/01/18 00:32:38;;;;;;;1.40;1.30;;;;;;;8.77;100.00;97363.53;7388573;19;20018;-79
2023/01/18 00:35:06;;;;;;;1.55;0.75;;;;;;;6.33;100.00;97369.47;7388390;19;20013;-79
2023/01/18 00:37:36;;;;;;;0.10;0.10;;;;;;;4.70;100.00;97373.94;7386178;19;20370;-79
2023/01/18 00:40:06;;;;;;;0.38;0.38;;;;;;;5.16;100.00;97379.81;7387049;19;20018;-79
2023/01/18 00:45:17;;;;;;;0.43;0.22;;;;;;;5.23;100.00;97365.53;7388490;19;20029;-79
2023/01/18 00:47:43;;;;;;;0.10;0.10;;;;;;;4.92;100.00;97371.22;7389315;19;20463;-79
2023/01/18 00:50:09;;;;;;;0.75;0.75;;;;;;;5.12;100.00;97371.03;7389310;19;20043;-79
2023/01/18 00:52:36;;;;;;;0.93;0.30;;;;;;;5.20;100.00;97372.78;7388864;19;20056;-79
2023/01/18 00:55:04;;;;;;;0.30;0.30;;;;;;;5.03;100.00;97368.50;7386995;19;20089;-80
2023/01/18 00:57:30;;;;;;;0.52;0.20;;;;;;;5.11;100.00;97370.25;7386086;19;20040;-79
2023/01/18 00:59:56;;;;;;;0.30;0.30;;;;;;;4.68;100.00;97377.16;7386697;19;20042;-79
2023/01/18 01:02:22;;;;;;;0.10;0.10;;;;;;;5.09;100.00;97375.53;7385550;19;20049;-79
2023/01/18 01:07:33;;;;;;;0.20;0.20;;;;;;;4.94;100.00;97377.00;7389310;19;20090;-79
2023/01/18 01:09:59;;;;;;;1.40;1.13;;;;;;;4.90;100.00;97376.47;7388403;19;20031;-79
2023/01/18 01:26:10;;;;;;;0.10;0.10;;;;;;;4.70;100.00;97384.97;7390787;19;20030;-79
2023/01/18 01:28:41;;;;;;;0.28;0.10;;;;;;;4.67;100.00;97383.94;7385049;19;20015;-80
2023/01/18 01:31:11;;;;;;;0.68;0.55;;;;;;;4.40;100.00;97381.81;7385651;19;20010;-79
2023/01/18 01:33:37;;;;;;;0.80;0.35;;;;;;;4.59;100.00;97380.16;7384275;19;20015;-80
2023/01/18 01:36:07;;;;;;;1.80;0.20;;;;;;;4.66;100.00;97382.44;7387029;19;20014;-80
2023/01/18 01:38:33;;;;;;;0.20;0.20;;;;;;;4.63;100.00;97386.91;7386529;19;20014;-79
2023/01/18 01:41:03;;;;;;;0.75;0.30;;;;;;;4.68;100.00;97387.47;7385008;19;20022;-79
2023/01/18 01:43:51;;;;;;;0.32;0.32;;;;;;;4.70;100.00;97384.97;7382888;19;20414;-79
2023/01/18 01:46:36;;;;;;;0.63;0.47;;;;;;;4.51;100.00;97396.41;7388031;19;20014;-79
2023/01/18 01:49:05;;;;;;;0.20;0.20;;;;;;;4.61;100.00;97394.94;7383234;19;20022;-79
2023/01/18 01:51:36;;;;;;;1.80;0.73;;;;;;;4.55;100.00;97390.66;7385954;19;20028;-79
2023/01/18 01:54:07;;;;;;;0.38;0.38;;;;;;;4.58;100.00;97382.16;7385826;19;20031;-79
2023/01/18 01:56:33;;;;;;;0.10;0.10;;;;;;;4.42;100.00;97385.59;7387788;19;20085;-79
2023/01/18 01:59:02;;;;;;;1.55;0.93;;;;;;;4.45;100.00;97381.84;7384796;19;20120;-79
2023/01/18 02:01:29;;;;;;;0.98;0.93;;;;;;;4.02;100.00;97382.38;7386021;19;20029;-79
2023/01/18 02:03:58;;;;;;;0.10;0.10;;;;;;;3.40;100.00;97396.94;7384261;19;20039;-79
2023/01/18 02:06:30;;;;;;;1.08;0.90;;;;;;;3.38;100.00;97385.66;7388156;19;20039;-79
2023/01/18 02:09:10;;;;;;;0.28;0.28;;;;;;;3.39;100.00;97384.41;7385390;19;20353;-78
2023/01/18 02:11:36;;;;;;;2.22;0.80;;;;;;;3.75;100.00;97378.94;7383740;19;20655;-79
2023/01/18 02:14:06;;;;;;;0.10;0.10;;;;;;;4.20;100.00;97374.44;7384307;19;20489;-79
2023/01/18 02:16:41;;;;;;;0.20;0.20;;;;;;;4.27;100.00;97376.75;7387022;19;20019;-79
2023/01/18 02:19:27;;;;;;;0.20;0.20;;;;;;;4.36;100.00;97395.84;7384471;19;20014;-79
2023/01/18 02:22:11;;;;;;;0.85;0.30;;;;;;;4.44;100.00;97402.38;7384550;19;20472;-79
2023/01/18 02:25:04;;;;;;;19.10;0.88;;;;;;;4.55;100.00;97405.19;7382764;19;20022;-79
2023/01/18 02:27:54;;;;;;;0.20;0.10;;;;;;;4.59;100.00;97413.25;7383205;19;20014;-79
2023/01/18 02:30:29;;;;;;;0.63;0.30;;;;;;;4.52;100.00;97419.97;7383184;19;20366;-79
2023/01/18 02:33:18;;;;;;;0.35;0.32;;;;;;;4.45;100.00;97417.69;7384022;19;20014;-79
2023/01/18 02:35:55;;;;;;;0.10;0.10;;;;;;;4.53;100.00;97421.47;7386267;19;20401;-79
2023/01/18 02:38:37;;;;;;;0.30;0.10;;;;;;;4.42;100.00;97421.41;7384885;19;20018;-79
2023/01/18 02:46:29;;;;;;;0.15;0.15;;;;;;;4.36;100.00;97423.38;7384242;19;20022;-79
2023/01/18 02:46:59;;;;;;;1.08;0.82;;;;;;;4.24;100.00;97410.81;7388481;19;20015;-79
2023/01/18 02:49:30;;;;;;;0.17;0.10;;;;;;;4.25;100.00;97428.81;7384270;19;20834;-79
2023/01/18 02:52:05;;;;;;;0.47;0.47;;;;;;;4.21;100.00;97420.03;7383733;19;20507;-79
2023/01/18 02:54:38;;;;;;;0.17;0.17;;;;;;;4.23;100.00;97409.28;7387289;19;20495;-80
2023/01/18 02:57:13;;;;;;;0.10;0.10;;;;;;;4.22;100.00;97407.75;7388102;19;20019;-79
2023/01/18 02:59:46;;;;;;;0.60;0.43;;;;;;;4.52;100.00;97414.47;7390448;19;20011;-79
2023/01/18 03:02:19;;;;;;;0.40;0.30;;;;;;;4.66;100.00;97412.75;7388475;19;20104;-79
2023/01/18 03:04:54;;;;;;;0.10;0.05;;;;;;;4.81;100.00;97418.09;7389826;19;20785;-86
2023/01/18 03:07:22;;;;;;;0.52;0.20;;;;;;;4.83;100.00;97410.81;7397852;19;20022;-81
2023/01/18 03:09:49;;;;;;;0.17;0.17;;;;;;;4.78;100.00;97410.78;7392108;19;20365;-81
2023/01/18 03:12:18;;;;;;;0.77;0.43;;;;;;;4.76;100.00;97427.09;7391952;19;20026;-81
2023/01/18 03:15:09;;;;;;;0.25;0.25;;;;;;;4.72;100.00;97416.28;7390740;19;20117;-82
2023/01/18 03:17:52;;;;;;;0.55;0.47;;;;;;;4.68;100.00;97409.50;7392001;19;20014;-79
2023/01/18 03:20:25;;;;;;;0.40;0.30;;;;;;;4.70;100.00;97415.28;7390280;19;20018;-78
2023/01/18 03:25:56;;;;;;;0.40;0.10;;;;;;;4.68;100.00;97417.78;7394788;19;20548;-79
2023/01/18 03:34:26;;;;;;;0.10;0.10;;;;;;;4.38;100.00;97414.63;7390026;19;20082;-80
2023/01/18 03:36:58;;;;;;;0.22;0.22;;;;;;;4.29;100.00;97412.81;7393738;19;20018;-79
2023/01/18 03:39:32;;;;;;;1.30;0.90;;;;;;;4.28;100.00;97422.34;7389069;19;20371;-80
2023/01/18 03:42:10;;;;;;;0.73;0.60;;;;;;;4.27;100.00;97429.09;7390535;19;20048;-80
2023/01/18 03:44:42;;;;;;;0.22;0.22;;;;;;;4.20;100.00;97421.28;7389882;19;20027;-79
2023/01/18 03:47:09;;;;;;;0.10;0.10;;;;;;;4.18;100.00;97429.28;7390647;19;20015;-79
2023/01/18 03:49:35;;;;;;;0.10;0.10;;;;;;;4.11;100.00;97418.75;7390954;19;20044;-80
2023/01/18 03:52:14;;;;;;;0.47;0.47;;;;;;;4.18;100.00;97423.75;7390867;19;20600;-80
2023/01/18 03:54:53;;;;;;;3.13;0.47;;;;;;;4.21;100.00;97417.28;7389972;19;20492;-79
2023/01/18 03:57:31;;;;;;;3.78;0.22;;;;;;;4.21;100.00;97422.78;7386476;19;20014;-79
2023/01/18 03:59:59;;;;;;;25.75;0.57;;;;;;;4.24;100.00;97430.09;7388520;19;20086;-79
2023/01/18 04:02:26;;;;;;;0.30;0.30;;;;;;;4.24;100.00;97424.59;7389892;19;20037;-79
2023/01/18 04:04:57;;;;;;;1.95;0.82;;;;;;;4.14;100.00;97428.75;7387892;19;20201;-79
2023/01/18 04:07:24;;;;;;;0.10;0.10;;;;;;;4.17;100.00;97427.78;7389674;19;20025;-78
2023/01/18 04:09:51;;;;;;;9.95;0.70;;;;;;;4.28;100.00;97427.84;7390544;19;20018;-79
2023/01/18 04:12:17;;;;;;;0.20;0.10;;;;;;;4.19;100.00;97421.78;7388423;19;20022;-79
2023/01/18 04:14:43;;;;;;;0.13;0.10;;;;;;;4.23;100.00;97425.81;7388778;19;20039;-79
2023/01/18 04:17:09;;;;;;;0.35;0.35;;;;;;;4.21;100.00;97424.78;7386767;19;20022;-78
2023/01/18 04:19:36;;;;;;;0.43;0.15;;;;;;;4.23;100.00;97425.06;7386755;19;20018;-79
2023/01/18 04:22:02;;;;;;;0.30;0.30;;;;;;;4.34;100.00;97431.38;7387713;19;20026;-79
2023/01/18 04:24:28;;;;;;;0.35;0.35;;;;;;;4.20;100.00;97432.28;7390870;19;20018;-79
2023/01/18 04:26:54;;;;;;;0.30;0.30;;;;;;;4.19;100.00;97427.28;7391541;19;20353;-79
2023/01/18 04:29:20;;;;;;;0.45;0.45;;;;;;;4.27;100.00;97437.34;7388631;19;20022;-79
2023/01/18 04:31:46;;;;;;;0.10;0.10;;;;;;;4.30;100.00;97425.34;7389287;19;20015;-78
2023/01/18 04:34:12;;;;;;;0.63;0.30;;;;;;;4.37;100.00;97424.91;7388203;19;20043;-78
2023/01/18 04:36:39;;;;;;;0.10;0.10;;;;;;;4.28;100.00;97432.59;7389685;19;20014;-78
2023/01/18 04:39:05;;;;;;;0.10;0.10;;;;;;;4.24;100.00;97432.09;7387903;19;20024;-78
2023/01/18 04:41:31;;;;;;;0.10;0.10;;;;;;;4.17;100.00;97438.81;7388879;19;20126;-79
2023/01/18 04:43:58;;;;;;;5.88;1.50;;;;;;;4.08;100.00;97438.97;7386772;19;20014;-78
2023/01/18 04:46:24;;;;;;;0.15;0.13;;;;;;;4.06;100.00;97438.72;7391785;19;20019;-79
2023/01/18 04:48:51;;;;;;;0.30;0.30;;;;;;;4.06;100.00;97433.22;7389767;19;20795;-78
2023/01/18 04:51:17;;;;;;;0.35;0.25;;;;;;;4.13;100.00;97443.78;7389264;19;20025;-79
2023/01/18 04:53:44;;;;;;;0.20;0.20;;;;;;;4.19;100.00;97450.09;7387638;19;20042;-79
2023/01/18 04:56:10;;;;;;;0.40;0.40;;;;;;;4.21;100.00;97453.09;7388251;19;20629;-78
2023/01/18 04:58:37;;;;;;;0.10;0.10;;;;;;;5.25;100.00;97446.53;7389414;19;20022;-78
2023/01/18 05:01:05;;;;;;;0.10;0.10;;;;;;;4.92;100.00;97462.22;7386500;19;20018;-78
2023/01/18 05:03:36;;;;;;;0.10;0.10;;;;;;;4.70;100.00;97460.13;7385674;19;20035;-78
2023/01/18 05:06:05;;;;;;;0.10;0.10;;;;;;;4.43;100.00;97466.25;7389109;19;20015;-79
2023/01/18 05:08:31;;;;;;;0.10;0.10;;;;;;;4.46;100.00;97459.78;7386627;19;20022;-81
2023/01/18 05:11:02;;;;;;;0.10;0.10;;;;;;;4.33;100.00;97453.94;7387185;19;20025;-80
2023/01/18 05:13:28;;;;;;;0.95;0.20;;;;;;;4.27;100.00;97464.91;7386373;19;20047;-81
2023/01/18 05:15:55;;;;;;;0.20;0.10;;;;;;;4.21;100.00;97466.88;7388592;19;20031;-81
2023/01/18 05:18:22;;;;;;;0.10;0.10;;;;;;;4.30;100.00;97469.44;7386456;19;20504;-80
2023/01/18 05:20:48;;;;;;;0.10;0.10;;;;;;;5.16;100.00;97470.84;7386857;19;20014;-81
2023/01/18 05:23:14;;;;;;;1.95;0.22;;;;;;;6.02;100.00;97473.50;7386116;19;20674;-80
2023/01/18 05:25:40;;;;;;;0.10;0.10;;;;;;;6.02;100.00;97479.03;7388694;19;20015;-80
2023/01/18 05:28:07;;;;;;;0.50;0.50;;;;;;;5.99;100.00;97485.56;7384081;19;20021;-80
2023/01/18 05:30:38;;;;;;;0.10;0.10;;;;;;;5.99;100.00;97479.28;7385845;19;20423;-80
2023/01/18 05:33:04;;;;;;;0.77;0.60;;;;;;;6.00;100.00;97487.06;7385157;19;20018;-79
2023/01/18 05:35:31;;;;;;;0.15;0.15;;;;;;;6.07;100.00;97486.56;7388751;19;20022;-79
2023/01/18 05:37:58;;;;;;;0.68;0.30;;;;;;;5.95;100.00;97485.06;7387859;19;20021;-78
2023/01/18 05:40:24;;;;;;;0.57;0.20;;;;;;;5.80;100.00;97495.59;7384677;19;20094;-79
2023/01/18 05:42:50;;;;;;;0.65;0.45;;;;;;;5.96;100.00;97503.16;7385325;19;20662;-78
2023/01/18 05:45:16;;;;;;;0.17;0.17;;;;;;;6.34;100.00;97498.13;7387291;19;20056;-79
2023/01/18 05:47:43;;;;;;;0.10;0.10;;;;;;;6.51;100.00;97507.91;7385721;19;20026;-79
2023/01/18 05:50:09;;;;;;;0.43;0.32;;;;;;;5.80;100.00;97512.16;7385772;19;20018;-79
2023/01/18 05:52:35;;;;;;;0.10;0.10;;;;;;;5.20;100.00;97510.72;7384290;19;20014;-79
2023/01/18 05:55:01;;;;;;;0.10;0.10;;;;;;;4.88;100.00;97511.34;7385915;19;20014;-78
2023/01/18 05:57:28;;;;;;;0.20;0.20;;;;;;;4.78;100.00;97519.06;7383571;19;20027;-80
2023/01/18 05:59:54;;;;;;;0.35;0.35;;;;;;;4.61;100.00;97513.44;7384243;19;20473;-80
2023/01/18 06:02:20;;;;;;;0.10;0.10;;;;;;;4.55;100.00;97518.19;7384900;19;20023;-79
2023/01/18 06:04:46;;;;;;;3.97;1.02;;;;;;;4.33;100.00;97509.75;7382775;19;20023;-79
2023/01/18 06:07:13;;;;;;;0.10;0.10;;;;;;;4.22;100.00;97517.94;7391756;19;20049;-79
2023/01/18 06:09:39;;;;;;;1.08;0.15;;;;;;;4.16;100.00;97519.91;7384971;19;20035;-81
2023/01/18 06:12:06;;;;;;;6.25;0.65;;;;;;;4.36;100.00;97516.28;7386351;19;20010;-78
2023/01/18 06:14:32;;;;;;;0.10;0.00;;;;;;;4.64;100.00;97519.97;7384616;19;20035;-78
2023/01/18 06:17:00;;;;;;;0.40;0.40;;;;;;;4.63;100.00;97527.50;7387136;19;20019;-78
2023/01/18 06:19:26;;;;;;;0.52;0.52;;;;;;;4.79;100.00;97536.34;7386103;19;20026;-78
2023/01/18 06:21:53;;;;;;;0.17;0.15;;;;;;;4.87;100.00;97538.19;7386332;19;20018;-77
2023/01/18 06:24:19;;;;;;;0.28;0.28;;;;;;;4.82;100.00;97535.38;7385754;19;20059;-77
2023/01/18 06:26:45;;;;;;;4.28;0.75;;;;;;;4.63;100.00;97545.28;7388417;19;20018;-78
2023/01/18 06:29:11;;;;;;;0.22;0.22;;;;;;;4.52;100.00;97551.50;7386993;19;20019;-78
2023/01/18 06:31:37;;;;;;;1.95;0.50;;;;;;;4.47;100.00;97549.44;7393455;19;20021;-78
2023/01/18 06:34:08;;;;;;;2.47;0.77;;;;;;;4.52;100.00;97549.50;7390446;19;20019;-78
2023/01/18 06:36:38;;;;;;;0.10;0.10;;;;;;;4.47;100.00;97560.47;7394949;19;20019;-78
2023/01/18 06:39:04;;;;;;;1.67;0.65;;;;;;;4.42;100.00;97556.41;7391125;19;20014;-78
2023/01/18 06:41:30;;;;;;;0.30;0.30;;;;;;;5.31;100.00;97559.69;7392490;19;20018;-78
2023/01/18 06:43:57;;;;;;;1.05;1.05;;;;;;;12.29;100.00;97555.88;7392081;19;20037;-78
2023/01/18 06:46:23;;;;;;;1.63;0.60;;;;;;;6.58;100.00;97567.47;7395271;19;20022;-79
2023/01/18 06:48:49;;;;;;;5.68;1.40;;;;;;;5.82;100.00;97564.88;7389653;19;20046;-78
2023/01/18 06:51:15;;;;;;;0.43;0.43;;;;;;;4.97;100.00;97585.59;7392541;19;20018;-78
2023/01/18 06:53:41;;;;;;;1.45;0.73;;;;;;;10.92;100.00;97577.66;7390534;19;20022;-78
2023/01/18 06:56:11;;;;;;;3.55;1.25;;;;;;;11.98;100.00;97583.44;7392598;19;20010;-78
2023/01/18 06:58:38;;;;;;;21.13;1.38;;;;;;;13.61;100.00;97577.59;7390510;19;20030;-79
2023/01/18 07:01:04;;;;;;;0.28;0.20;;;;;;;11.11;95.07;97601.34;7392402;19;20018;-78
2023/01/18 07:03:30;;;;;;;0.35;0.35;;;;;;;10.40;100.00;97595.72;7391627;19;20122;-77
2023/01/18 07:06:00;;;;;;;0.55;0.45;;;;;;;11.10;100.00;97599.09;7392240;19;20033;-77
2023/01/18 07:08:29;;;;;;;0.10;0.10;;;;;;;18.25;73.04;97590.97;7389259;19;20018;-77
2023/01/18 07:10:56;;;;;;;0.90;0.45;;;;;;;18.16;71.34;97595.94;7389771;19;20484;-77
2023/01/18 07:13:23;;;;;;;3.72;0.95;;;;;;;15.82;64.86;97597.72;7390683;19;20023;-77
2023/01/18 07:15:55;;;;;;;0.28;0.22;;;;;;;16.55;75.64;97592.91;7391826;19;20045;-77
2023/01/18 07:18:22;;;;;;;2.25;0.40;;;;;;;18.93;65.99;97602.03;7391859;19;20018;-78
2023/01/18 07:21:07;;;;;;;0.25;0.25;;;;;;;18.65;65.83;97597.00;7391542;19;20014;-78
2023/01/18 07:23:36;;;;;;;0.95;0.47;;;;;;;16.07;71.74;97611.81;7391351;19;20025;-77
2023/01/18 07:26:04;;;;;;;1.13;0.32;;;;;;;14.47;70.82;97606.88;7392513;19;20043;-78
2023/01/18 07:28:33;;;;;;;5.45;2.25;;;;;;;9.49;99.33;97625.69;7390547;19;20022;-78
2023/01/18 07:31:00;;;;;;;5.13;2.08;;;;;;;18.19;68.54;97606.03;7390723;19;20015;-77
2023/01/18 07:33:27;;;;;;;0.95;0.85;;;;;;;16.29;71.30;97616.59;7391504;19;20044;-77
2023/01/18 07:35:54;;;;;;;2.78;0.85;;;;;;;20.13;58.01;97615.41;7391293;19;20026;-77
2023/01/18 07:38:21;;;;;;;0.98;0.88;;;;;;;17.16;65.28;97621.34;7391419;19;20022;-78
2023/01/18 07:40:48;;;;;;;5.35;1.45;;;;;;;21.16;52.97;97620.00;7389391;19;20048;-77
2023/01/18 07:43:16;;;;;;;2.22;1.08;;;;;;;18.69;57.83;97625.53;7391424;19;20025;-77
2023/01/18 07:45:43;;;;;;;0.82;0.28;;;;;;;17.81;60.96;97633.91;7392076;19;20354;-77
2023/01/18 07:48:09;;;;;;;0.40;0.40;;;;;;;19.72;55.46;97631.44;7393762;19;20026;-77
2023/01/18 07:50:35;;;;;;;0.80;0.40;;;;;;;16.64;58.02;97638.00;7392904;19;20106;-78
2023/01/18 07:53:07;;;;;;;1.20;0.77;;;;;;;17.65;58.61;97632.56;7391135;19;20043;-77
2023/01/18 07:55:34;;;;;;;5.85;1.25;;;;;;;19.32;53.50;97637.53;7393094;19;20022;-77
2023/01/18 07:58:00;;;;;;;4.05;1.60;;;;;;;19.99;53.18;97642.63;7388217;19;20024;-77
2023/01/18 08:00:27;;;;;;;4.68;1.00;;;;;;;20.72;50.34;97634.56;7388541;19;20049;-77
2023/01/18 08:02:54;;;;;;;3.55;1.40;;;;;;;19.90;49.48;97643.34;7388889;19;20027;-77
2023/01/18 08:05:25;;;;;;;2.40;1.05;;;;;;;20.80;49.06;97635.88;7388376;19;20039;-78
2023/01/18 08:07:52;;;;;;;1.02;1.00;;;;;;;14.70;52.98;97654.56;7390126;19;20491;-78
2023/01/18 08:10:20;;;;;;;0.85;0.22;;;;;;;7.05;100.00;97677.06;7387743;19;20020;-77
2023/01/18 08:12:46;;;;;;;1.20;0.60;;;;;;;4.66;100.00;97676.63;7389855;19;20019;-77
2023/01/18 08:15:12;;;;;;;0.52;0.45;;;;;;;3.70;100.00;97682.38;7387152;19;20459;-77
2023/01/18 08:17:38;;;;;;;0.55;0.55;;;;;;;3.49;100.00;97685.63;7390851;19;20041;-77
2023/01/18 08:20:08;;;;;;;3.45;0.73;;;;;;;3.08;100.00;97695.81;7385128;19;20010;-77
2023/01/18 08:22:35;;;;;;;5.93;0.82;;;;;;;2.77;100.00;97699.06;7384341;19;20044;-78
2023/01/18 08:25:02;;;;;;;1.48;0.90;;;;;;;2.73;100.00;97711.50;7391027;19;20020;-78
2023/01/18 08:27:29;;;;;;;2.90;1.55;;;;;;;2.43;100.00;97704.47;7390251;19;20014;-78
2023/01/18 08:29:56;;;;;;;2.03;0.65;;;;;;;2.04;100.00;97717.50;7389456;19;20485;-78
2023/01/18 08:32:22;;;;;;;2.70;1.38;;;;;;;1.84;100.00;97714.63;7389810;19;20098;-77
2023/01/18 08:34:48;;;;;;;0.50;0.38;;;;;;;1.69;100.00;97724.81;7385973;19;20019;-77
2023/01/18 08:37:16;;;;;;;11.55;1.65;;;;;;;1.82;100.00;97722.56;7387088;19;20439;-78
2023/01/18 08:39:42;;;;;;;15.70;3.58;;;;;;;1.90;100.00;97726.47;7389502;19;20015;-77
2023/01/18 08:42:11;;;;;;;6.68;1.52;;;;;;;1.90;100.00;97729.22;7387219;19;20010;-78
2023/01/18 08:44:37;;;;;;;9.43;1.23;;;;;;;2.78;100.00;97735.56;7387163;19;20021;-79
2023/01/18 08:47:03;;;;;;;9.18;2.15;;;;;;;2.86;100.00;97731.94;7392639;19;20029;-78
2023/01/18 08:49:31;;;;;;;9.68;2.65;;;;;;;2.47;100.00;97746.28;7388295;19;20022;-78
2023/01/18 08:51:57;;;;;;;4.60;2.95;;;;;;;2.37;100.00;97753.06;7388076;19;20019;-78
2023/01/18 08:54:24;;;;;;;12.63;1.85;;;;;;;2.44;100.00;97761.72;7386878;19;20461;-78
2023/01/18 08:56:50;;;;;;;12.05;2.40;;;;;;;2.37;100.00;97769.53;7391251;19;20018;-78
2023/01/18 08:59:18;;;;;;;7.32;2.30;;;;;;;2.32;100.00;97765.47;7385261;19;20047;-79
2023/01/18 09:01:44;;;;;;;15.95;3.05;;;;;;;2.21;100.00;97768.00;7388360;19;20023;-78
2023/01/18 09:04:10;;;;;;;8.07;4.68;;;;;;;2.19;100.00;97773.97;7386572;19;20018;-78
2023/01/18 09:06:37;;;;;;;8.90;1.77;;;;;;;2.14;100.00;97768.38;7392750;19;20019;-78
2023/01/18 09:09:04;;;;;;;8.95;2.22;;;;;;;2.22;100.00;97766.78;7388582;19;20018;-78
2023/01/18 09:11:30;;;;;;;2.00;1.17;;;;;;;2.14;100.00;97776.59;7388769;19;20010;-79
2023/01/18 09:13:58;;;;;;;2.72;2.15;;;;;;;2.09;100.00;97791.75;7387141;19;20035;-78
2023/01/18 09:16:24;;;;;;;0.80;0.80;;;;;;;2.08;100.00;97794.97;7387272;19;20044;-77
2023/01/18 09:18:50;;;;;;;1.98;1.25;;;;;;;2.06;100.00;97808.38;7386258;19;20018;-78
2023/01/18 09:21:17;;;;;;;1.75;1.52;;;;;;;2.08;100.00;97805.94;7387646;19;20026;-78
2023/01/18 09:23:44;;;;;;;1.48;0.80;;;;;;;2.12;100.00;97801.03;7388494;19;20026;-79
2023/01/18 09:26:15;;;;;;;1.13;1.05;;;;;;;2.11;100.00;97799.50;7388771;19;20035;-79
2023/01/18 09:28:43;;;;;;;0.70;0.70;;;;;;;2.09;100.00;97812.94;7387536;19;20015;-78
2023/01/18 09:31:11;;;;;;;7.00;1.33;;;;;;;2.09;100.00;97818.44;7389646;19;20051;-78
2023/01/18 09:33:38;;;;;;;3.75;0.93;;;;;;;2.03;100.00;97814.81;7385662;19;20018;-78
2023/01/18 09:36:08;;;;;;;2.05;1.38;;;;;;;1.97;100.00;97816.69;7387874;19;20054;-78
2023/01/18 09:38:35;;;;;;;1.42;1.17;;;;;;;1.95;100.00;97819.16;7387872;19;20014;-77
2023/01/18 09:41:06;;;;;;;0.98;0.52;;;;;;;2.00;100.00;97829.47;7385435;19;20011;-78
2023/01/18 09:43:42;;;;;;;0.20;0.20;;;;;;;2.12;100.00;97829.22;7388326;19;20022;-78
2023/01/18 09:46:18;;;;;;;3.00;1.48;;;;;;;2.12;100.00;97833.97;7390449;19;20018;-77
2023/01/18 09:48:51;;;;;;;4.57;1.60;;;;;;;2.19;100.00;97847.31;7385457;19;20415;-78
2023/01/18 09:51:22;;;;;;;4.55;0.50;;;;;;;2.25;100.00;97840.72;7385076;19;20019;-78
2023/01/18 09:54:09;;;;;;;2.50;1.95;;;;;;;2.19;100.00;97844.59;7384880;19;20052;-78
2023/01/18 09:56:43;;;;;;;5.38;1.70;;;;;;;2.25;100.00;97853.72;7388733;19;20035;-78
2023/01/18 09:59:29;;;;;;;0.73;0.38;;;;;;;2.14;100.00;97851.47;7383754;19;20390;-78
2023/01/18 10:01:55;;;;;;;1.45;1.20;;;;;;;1.94;100.00;97858.78;7385208;19;20569;-78
2023/01/18 10:04:35;;;;;;;12.70;1.05;;;;;;;1.83;100.00;97872.25;7387312;19;20014;-78
2023/01/18 10:07:05;;;;;;;0.13;0.13;;;;;;;1.78;100.00;97870.13;7398394;19;20022;-79
2023/01/18 10:09:37;;;;;;;5.95;0.73;;;;;;;1.79;100.00;97882.63;7388796;19;20018;-78
2023/01/18 10:12:36;;;;;;;0.88;0.70;;;;;;;1.98;100.00;97884.06;7388215;19;20540;-78
2023/01/18 10:15:19;;;;;;;4.07;0.75;;;;;;;1.96;100.00;97883.78;7385615;19;20018;-78
2023/01/18 10:17:46;;;;;;;0.60;0.25;;;;;;;1.94;100.00;97888.97;7389070;19;20479;-78
2023/01/18 10:20:32;;;;;;;0.63;0.63;;;;;;;1.91;100.00;97892.63;7392010;19;20014;-78
2023/01/18 10:23:05;;;;;;;0.82;0.82;;;;;;;1.73;100.00;97896.25;7392991;19;20081;-78
2023/01/18 10:25:33;;;;;;;0.40;0.40;;;;;;;1.65;100.00;97905.25;7392323;19;20022;-78
2023/01/18 10:28:22;;;;;;;6.00;1.13;;;;;;;1.73;100.00;97906.44;7391224;19;20019;-78
2023/01/18 10:30:54;;;;;;;0.68;0.68;;;;;;;1.82;100.00;97915.38;7390705;19;20090;-78
2023/01/18 10:33:24;;;;;;;7.03;1.15;;;;;;;1.81;100.00;97924.88;7392104;19;20032;-78
2023/01/18 10:35:55;;;;;;;0.45;0.45;;;;;;;1.77;100.00;97929.00;7394626;19;20018;-78
2023/01/18 10:38:27;;;;;;;1.17;1.08;;;;;;;1.73;100.00;97937.41;7390912;19;20022;-78
2023/01/18 10:40:56;;;;;;;0.90;0.57;;;;;;;1.82;100.00;97934.59;7392358;19;20011;-78
2023/01/18 10:43:25;;;;;;;2.25;1.15;;;;;;;1.84;100.00;97943.13;7392710;19;20029;-78
2023/01/18 10:45:52;;;;;;;11.70;1.27;;;;;;;1.92;100.00;97932.59;7394559;19;20019;-77
2023/01/18 10:48:26;;;;;;;8.60;1.00;;;;;;;1.87;100.00;97941.44;7391727;19;20024;-78
2023/01/18 10:50:56;;;;;;;1.48;0.30;;;;;;;1.87;100.00;97941.44;7390842;19;20014;-78
2023/01/18 10:53:22;;;;;;;4.05;0.90;;;;;;;1.95;100.00;97934.41;7390000;19;20362;-78
2023/01/18 10:56:00;;;;;;;2.35;0.52;;;;;;;2.02;100.00;97934.81;7393381;19;20010;-78
2023/01/18 10:58:31;;;;;;;1.20;0.88;;;;;;;2.26;100.00;97937.59;7391116;19;20712;-78
2023/01/18 11:01:00;;;;;;;11.18;1.50;;;;;;;2.38;100.00;97944.88;7389520;19;20615;-78
2023/01/18 11:03:27;;;;;;;1.90;1.08;;;;;;;2.33;100.00;97942.75;7389689;19;20010;-78
2023/01/18 11:06:03;;;;;;;3.03;0.85;;;;;;;2.25;100.00;97942.31;7393201;19;20018;-78
2023/01/18 11:08:32;;;;;;;2.40;0.30;;;;;;;2.17;100.00;97940.38;7395275;19;20520;-79
2023/01/18 11:11:18;;;;;;;12.77;2.03;;;;;;;2.32;100.00;97935.00;7390864;19;20508;-79
2023/01/18 11:13:46;;;;;;;16.73;3.45;;;;;;;2.32;100.00;97938.47;7388261;19;20018;-78
2023/01/18 11:16:17;;;;;;;5.82;1.95;;;;;;;2.35;100.00;97945.78;7387528;19;20014;-78
2023/01/18 11:19:04;;;;;;;6.65;3.15;;;;;;;2.33;100.00;97953.75;7388166;19;20018;-78
2023/01/18 11:21:52;;;;;;;5.43;1.95;;;;;;;2.32;100.00;97957.69;7390334;19;20026;-78
2023/01/18 11:24:25;;;;;;;1.35;1.13;;;;;;;2.35;100.00;97947.78;7389719;19;20515;-77
2023/01/18 11:26:55;;;;;;;0.45;0.45;;;;;;;2.44;100.00;97959.47;7394450;19;20354;-77
2023/01/18 11:29:26;;;;;;;0.75;0.52;;;;;;;2.41;100.00;97960.41;7392104;19;20014;-77
2023/01/18 11:31:53;;;;;;;3.97;2.33;;;;;;;2.35;100.00;97958.75;7390933;19;20026;-77
2023/01/18 11:34:33;;;;;;;3.20;1.42;;;;;;;2.29;100.00;97970.41;7390979;19;20379;-77
2023/01/18 11:37:01;;;;;;;2.88;1.73;;;;;;;3.72;100.00;97965.44;7389853;19;20015;-77
2023/01/18 11:39:36;;;;;;;5.00;2.63;;;;;;;3.51;100.00;97977.59;7393571;19;20006;-77
2023/01/18 11:42:13;;;;;;;2.20;1.35;;;;;;;3.30;100.00;97982.19;7392741;19;20562;-77
2023/01/18 11:45:21;;;;;;;12.82;2.33;;;;;;;3.11;100.00;97977.31;7387719;19;20050;-78
2023/01/18 11:47:56;;;;;;;1.45;0.90;;;;;;;2.73;100.00;97978.81;7386958;19;20020;-79
2023/01/18 11:50:30;;;;;;;2.28;1.33;;;;;;;2.51;100.00;97970.13;7387525;19;20018;-78
2023/01/18 11:53:08;;;;;;;7.78;1.38;;;;;;;2.40;100.00;97980.09;7387231;19;20088;-77
2023/01/18 11:55:40;;;;;;;9.90;0.95;;;;;;;2.39;100.00;97978.56;7392622;19;20062;-78
2023/01/18 11:58:25;;;;;;;4.13;1.08;;;;;;;2.22;100.00;97984.47;7390700;19;20023;-79
2023/01/18 12:01:01;;;;;;;12.60;0.95;;;;;;;2.24;100.00;97987.50;7391632;19;20572;-78
2023/01/18 12:03:46;;;;;;;1.77;0.73;;;;;;;2.27;100.00;97999.53;7388152;19;20023;-78
2023/01/18 12:06:27;;;;;;;1.85;0.57;;;;;;;2.29;100.00;98003.34;7391112;19;20022;-77
2023/01/18 12:08:58;;;;;;;0.35;0.35;;;;;;;2.29;100.00;98013.56;7390453;19;20039;-77
2023/01/18 12:11:24;;;;;;;;;;;;;;;2.26;100.00;98009.00;7390756;19;20015;-77
2023/01/18 12:14:02;;;;;;;5.10;1.33;;;;;;;2.27;100.00;98016.75;7389164;19;19949;-78
2023/01/18 12:16:53;;;;;;;2.55;0.70;;;;;;;2.27;100.00;98016.03;7391638;19;20147;-78
2023/01/18 12:19:53;;;;;;;0.20;0.20;;;;;;;2.29;100.00;98024.56;7388275;19;20137;-76